Time;durP1;ratioP1;P1;durP2;ratioP2;P2;SDS_P1;SDS_P2;PMS_P1;PMS_P2;Temp;Humidity;BMP_temperature;BMP_pressure;BME280_temperature;BME280_humidity;BME280_pressure;Samples;Min_cycle;Max_cycle;Signal;HPM_P1;HPM_P2
2021/05/24 00:00:33;;;;;;;2.45;0.50;;;25.40;84.40;;;;;;4990100;28;20508;-76
2021/05/24 00:03:00;;;;;;;2.90;0.60;;;25.60;82.70;;;;;;4998933;28;20030;-75
2021/05/24 00:05:30;;;;;;;2.47;0.40;;;25.60;82.90;;;;;;4998955;28;20034;-76
2021/05/24 00:07:58;;;;;;;1.67;0.40;;;25.80;81.60;;;;;;5001019;28;20049;-75
2021/05/24 00:10:28;;;;;;;0.63;0.28;;;26.00;82.00;;;;;;4995112;28;20421;-76
2021/05/24 00:13:00;;;;;;;2.72;0.20;;;26.20;85.30;;;;;;5001923;28;20041;-75
2021/05/24 00:15:37;;;;;;;0.47;0.10;;;26.40;84.10;;;;;;4994178;28;20027;-74
2021/05/24 00:18:06;;;;;;;0.52;0.05;;;25.80;81.10;;;;;;4995129;28;20030;-75
2021/05/24 00:20:40;;;;;;;0.22;0.10;;;24.50;83.90;;;;;;4992242;28;20027;-75
2021/05/24 00:23:08;;;;;;;0.60;0.13;;;23.70;88.20;;;;;;4999795;28;20551;-75
2021/05/24 00:25:36;;;;;;;0.57;0.10;;;23.40;87.50;;;;;;4996630;28;20168;-75
2021/05/24 00:28:03;;;;;;;1.98;0.35;;;23.10;88.50;;;;;;4999775;28;20661;-76
2021/05/24 00:30:34;;;;;;;2.03;0.40;;;23.20;88.10;;;;;;4991590;28;20038;-75
2021/05/24 00:33:03;;;;;;;1.58;0.20;;;23.90;87.60;;;;;;5000115;28;20030;-76
2021/05/24 00:35:31;;;;;;;1.48;0.20;;;24.30;86.40;;;;;;4994374;28;20038;-77
2021/05/24 00:37:59;;;;;;;0.60;0.10;;;25.00;83.30;;;;;;4997246;28;20440;-77
2021/05/24 00:40:28;;;;;;;2.35;0.20;;;24.80;81.60;;;;;;4990652;28;20031;-76
2021/05/24 00:42:56;;;;;;;1.40;0.20;;;24.30;83.40;;;;;;4990427;28;20080;-75
2021/05/24 00:45:24;;;;;;;2.40;0.20;;;23.50;85.20;;;;;;5003729;28;20392;-75
2021/05/24 00:47:51;;;;;;;0.77;0.20;;;22.80;87.50;;;;;;5004124;28;20559;-76
2021/05/24 00:50:19;;;;;;;0.88;0.10;;;22.10;88.90;;;;;;4999727;28;20039;-75
2021/05/24 00:52:47;;;;;;;1.00;0.20;;;21.70;90.70;;;;;;4995695;28;20048;-75
2021/05/24 00:55:15;;;;;;;0.80;0.10;;;21.60;91.30;;;;;;4998889;28;20636;-75
2021/05/24 00:57:44;;;;;;;0.57;0.30;;;22.00;91.20;;;;;;4993289;28;20373;-75
2021/05/24 01:00:21;;;;;;;0.63;0.10;;;22.30;90.20;;;;;;4992392;28;20030;-75
2021/05/24 01:02:51;;;;;;;0.22;0.10;;;22.20;90.50;;;;;;4995095;28;20026;-74
2021/05/24 01:05:19;;;;;;;2.38;0.28;;;21.70;90.80;;;;;;4999551;28;20038;-74
2021/05/24 01:07:46;;;;;;;0.65;0.10;;;21.30;91.10;;;;;;5002800;28;20098;-74
2021/05/24 01:10:14;;;;;;;0.52;0.20;;;21.00;91.90;;;;;;4986522;28;20749;-74
2021/05/24 01:12:41;;;;;;;1.30;0.10;;;20.70;92.50;;;;;;4996083;28;20038;-74
2021/05/24 01:15:10;;;;;;;1.27;0.20;;;20.70;92.60;;;;;;4991105;28;20504;-73
2021/05/24 01:17:38;;;;;;;0.82;0.45;;;20.70;93.40;;;;;;4989081;28;20041;-76
2021/05/24 01:20:06;;;;;;;0.90;0.10;;;20.50;93.70;;;;;;4988818;28;20018;-76
2021/05/24 01:22:37;;;;;;;1.90;0.52;;;20.40;93.60;;;;;;4994020;28;20075;-76
2021/05/24 01:25:06;;;;;;;1.90;0.20;;;20.30;93.40;;;;;;4988520;28;20042;-76
2021/05/24 01:27:34;;;;;;;1.58;0.20;;;20.30;93.20;;;;;;4987286;28;20417;-76
2021/05/24 01:30:01;;;;;;;2.35;0.17;;;20.30;93.60;;;;;;4987013;28;20105;-75
2021/05/24 01:32:29;;;;;;;0.45;0.20;;;20.30;93.40;;;;;;4992683;28;20041;-76
2021/05/24 01:34:56;;;;;;;1.95;0.60;;;20.40;92.70;;;;;;4987536;28;20742;-75
2021/05/24 01:37:24;;;;;;;1.38;0.20;;;20.50;92.90;;;;;;4991774;28;20034;-76
2021/05/24 01:39:51;;;;;;;2.80;0.15;;;20.40;92.90;;;;;;4987031;28;20068;-75
2021/05/24 01:42:19;;;;;;;1.10;0.20;;;20.50;93.00;;;;;;4989829;28;20465;-76
2021/05/24 01:44:46;;;;;;;1.63;0.22;;;20.50;93.60;;;;;;4992531;28;20495;-76
2021/05/24 01:47:13;;;;;;;0.80;0.30;;;20.70;93.60;;;;;;4992873;28;20065;-76
2021/05/24 01:49:47;;;;;;;1.52;0.70;;;20.90;93.30;;;;;;4991089;28;20489;-75
2021/05/24 01:52:16;;;;;;;0.52;0.15;;;21.10;92.20;;;;;;4991654;28;20041;-75
2021/05/24 01:54:45;;;;;;;2.47;0.40;;;21.40;91.40;;;;;;4988911;28;20160;-77
2021/05/24 01:57:14;;;;;;;0.40;0.20;;;21.30;91.50;;;;;;4987330;28;20492;-77
2021/05/24 01:59:42;;;;;;;0.73;0.15;;;21.00;92.10;;;;;;4990209;28;20029;-74
2021/05/24 02:02:11;;;;;;;1.67;0.50;;;20.70;92.40;;;;;;4995962;28;20030;-75
2021/05/24 02:04:38;;;;;;;0.65;0.38;;;20.60;92.40;;;;;;4998408;28;20086;-75
2021/05/24 02:07:06;;;;;;;0.65;0.30;;;20.50;92.50;;;;;;5000769;28;20423;-76
2021/05/24 02:09:35;;;;;;;2.95;0.50;;;20.30;92.70;;;;;;5002085;28;20030;-76
2021/05/24 02:12:02;;;;;;;1.40;0.30;;;20.20;93.10;;;;;;5000343;28;20108;-75
2021/05/24 02:14:29;;;;;;;4.40;0.70;;;20.20;93.30;;;;;;4997574;28;20037;-76
2021/05/24 02:16:57;;;;;;;2.17;0.77;;;20.20;93.00;;;;;;4997326;28;20027;-77
2021/05/24 02:19:24;;;;;;;2.40;0.30;;;20.10;93.50;;;;;;5001243;28;20060;-77
2021/05/24 02:21:52;;;;;;;2.50;0.30;;;20.00;93.30;;;;;;4997402;28;20414;-77
2021/05/24 02:24:19;;;;;;;1.30;0.32;;;19.80;93.90;;;;;;4993918;28;20105;-76
2021/05/24 02:26:47;;;;;;;1.58;0.20;;;19.80;94.10;;;;;;4998781;28;20033;-77
2021/05/24 02:29:15;;;;;;;0.75;0.50;;;19.90;94.10;;;;;;5001698;28;20994;-77
2021/05/24 02:31:42;;;;;;;2.03;0.30;;;19.90;94.00;;;;;;4999776;28;20030;-77
2021/05/24 02:34:10;;;;;;;1.52;0.57;;;19.60;93.80;;;;;;4997376;28;20122;-78
2021/05/24 02:36:38;;;;;;;2.92;0.45;;;19.60;94.40;;;;;;4999864;28;20068;-75
2021/05/24 02:39:08;;;;;;;3.50;0.30;;;19.60;94.50;;;;;;5002219;28;20041;-75
2021/05/24 02:41:36;;;;;;;0.73;0.30;;;19.60;94.40;;;;;;5000339;28;20030;-75
2021/05/24 02:44:06;;;;;;;1.83;0.38;;;19.60;94.60;;;;;;4995032;28;20029;-76
2021/05/24 02:46:35;;;;;;;1.25;0.40;;;19.70;94.80;;;;;;4997890;28;20022;-74
2021/05/24 02:49:03;;;;;;;3.80;0.88;;;19.70;95.30;;;;;;4999095;28;20026;-74
2021/05/24 02:51:30;;;;;;;1.38;0.38;;;19.60;95.20;;;;;;4994201;28;20084;-74
2021/05/24 02:53:58;;;;;;;0.93;0.20;;;19.50;95.10;;;;;;5000982;28;20029;-74
2021/05/24 02:56:25;;;;;;;1.95;0.50;;;19.60;94.90;;;;;;4997812;28;20049;-75
2021/05/24 02:58:52;;;;;;;2.38;0.57;;;19.70;95.00;;;;;;4996832;28;20122;-75
2021/05/24 03:01:21;;;;;;;1.67;0.35;;;19.60;95.40;;;;;;4997473;28;20041;-76
2021/05/24 03:03:56;;;;;;;1.88;1.13;;;19.80;95.50;;;;;;5002891;28;20041;-75
2021/05/24 03:06:24;;;;;;;1.33;0.75;;;19.80;95.70;;;;;;4998772;28;20018;-75
2021/05/24 03:08:51;;;;;;;3.08;0.63;;;19.80;95.80;;;;;;4996860;28;20370;-75
2021/05/24 03:11:20;;;;;;;2.30;0.75;;;19.80;95.80;;;;;;4998311;28;20025;-74
2021/05/24 03:13:48;;;;;;;1.90;0.80;;;19.90;95.50;;;;;;5004567;28;20049;-75
2021/05/24 03:16:17;;;;;;;1.13;0.47;;;19.90;95.40;;;;;;4993648;28;20046;-76
2021/05/24 03:18:44;;;;;;;1.42;0.55;;;19.90;95.80;;;;;;4995478;28;20034;-76
2021/05/24 03:21:12;;;;;;;3.47;0.98;;;19.80;95.60;;;;;;4993844;28;20038;-76
2021/05/24 03:23:39;;;;;;;2.95;0.52;;;19.80;95.90;;;;;;4998420;28;20526;-77
2021/05/24 03:26:07;;;;;;;2.72;0.50;;;19.80;96.00;;;;;;4996546;28;20088;-77
2021/05/24 03:28:34;;;;;;;0.73;0.40;;;19.70;96.00;;;;;;5001093;28;20093;-76
2021/05/24 03:31:01;;;;;;;4.78;0.98;;;19.80;96.30;;;;;;4990722;28;20014;-75
2021/05/24 03:33:29;;;;;;;2.85;0.50;;;19.70;96.30;;;;;;5002228;28;20038;-76
2021/05/24 03:35:56;;;;;;;1.02;0.50;;;19.80;96.40;;;;;;4994486;28;20030;-75
2021/05/24 03:38:24;;;;;;;8.38;1.15;;;19.70;96.50;;;;;;4995080;28;20501;-74
2021/05/24 03:40:51;;;;;;;2.40;0.68;;;19.70;96.70;;;;;;4991206;28;20489;-73
2021/05/24 03:43:20;;;;;;;1.05;0.40;;;19.70;95.90;;;;;;5002070;28;20022;-74
2021/05/24 03:45:48;;;;;;;2.15;0.40;;;19.80;95.60;;;;;;4996336;28;20033;-73
2021/05/24 03:48:15;;;;;;;1.75;0.32;;;19.80;95.20;;;;;;4994128;28;20056;-74
2021/05/24 03:50:43;;;;;;;1.63;0.63;;;19.90;95.00;;;;;;4996363;28;20069;-75
2021/05/24 03:53:11;;;;;;;4.00;0.82;;;19.80;95.10;;;;;;5000631;28;20062;-75
2021/05/24 03:55:38;;;;;;;4.78;0.70;;;19.80;95.20;;;;;;4992833;28;20159;-76
2021/05/24 03:58:06;;;;;;;2.60;0.52;;;19.80;95.30;;;;;;4994592;28;20133;-76
2021/05/24 04:00:34;;;;;;;1.13;0.50;;;19.80;95.30;;;;;;4994687;28;20022;-76
2021/05/24 04:03:03;;;;;;;2.05;0.50;;;19.70;95.30;;;;;;4999482;28;20030;-75
2021/05/24 04:05:36;;;;;;;4.50;1.13;;;19.70;95.30;;;;;;4997990;28;20029;-75
2021/05/24 04:08:06;;;;;;;0.82;0.40;;;19.70;95.40;;;;;;4996496;28;20080;-74
2021/05/24 04:10:48;;;;;;;2.58;0.47;;;19.70;95.30;;;;;;4989616;28;20046;-76
2021/05/24 04:13:16;;;;;;;2.75;0.57;;;19.70;95.10;;;;;;4984003;28;20034;-76
2021/05/24 04:15:46;;;;;;;4.63;0.43;;;19.80;94.90;;;;;;4983969;28;20034;-74
2021/05/24 04:18:16;;;;;;;4.47;0.50;;;19.80;94.90;;;;;;4986390;28;20208;-74
2021/05/24 04:20:46;;;;;;;2.55;0.82;;;19.70;94.90;;;;;;4989601;28;20065;-73
2021/05/24 04:23:17;;;;;;;1.70;0.68;;;19.70;95.00;;;;;;5000705;28;20116;-74
2021/05/24 04:25:45;;;;;;;1.45;0.57;;;19.70;94.90;;;;;;4997203;28;20128;-73
2021/05/24 04:28:13;;;;;;;1.75;0.30;;;19.70;94.70;;;;;;5010339;28;20037;-74
2021/05/24 04:30:41;;;;;;;3.85;0.70;;;19.70;94.70;;;;;;4999124;28;20465;-73
2021/05/24 04:33:08;;;;;;;3.72;0.40;;;19.60;94.80;;;;;;5001200;28;20083;-72
2021/05/24 04:35:36;;;;;;;1.42;0.70;;;19.60;95.10;;;;;;4992108;28;20025;-73
2021/05/24 04:38:05;;;;;;;2.45;0.50;;;19.60;95.10;;;;;;4994733;28;20307;-74
2021/05/24 04:40:32;;;;;;;2.20;0.40;;;19.60;95.20;;;;;;5008152;28;20100;-74
2021/05/24 04:43:00;;;;;;;4.40;0.80;;;19.60;95.00;;;;;;4999887;28;20030;-73
2021/05/24 04:45:27;;;;;;;2.33;0.60;;;19.60;95.10;;;;;;5002452;28;20429;-71
2021/05/24 04:47:54;;;;;;;2.72;0.70;;;19.60;95.00;;;;;;5003817;28;20039;-73
2021/05/24 04:50:22;;;;;;;2.47;0.70;;;19.70;95.00;;;;;;4994752;28;20033;-72
2021/05/24 04:52:49;;;;;;;1.92;1.42;;;19.70;94.90;;;;;;5008533;28;20026;-74
2021/05/24 04:55:19;;;;;;;1.42;0.80;;;19.70;94.90;;;;;;5003786;28;20358;-74
2021/05/24 04:57:46;;;;;;;3.70;1.48;;;19.70;94.90;;;;;;5006288;28;20034;-75
2021/05/24 05:00:14;;;;;;;1.83;0.60;;;19.70;94.60;;;;;;5005087;28;20038;-74
2021/05/24 05:02:42;;;;;;;1.05;0.45;;;19.80;94.50;;;;;;4998364;28;20037;-74
2021/05/24 05:05:11;;;;;;;2.45;0.82;;;19.70;94.70;;;;;;4996168;28;20028;-73
2021/05/24 05:07:38;;;;;;;2.10;1.85;;;19.70;94.80;;;;;;5000283;28;20018;-75
2021/05/24 05:10:06;;;;;;;3.20;0.70;;;19.70;94.80;;;;;;5001045;28;20054;-72
2021/05/24 05:12:34;;;;;;;2.05;0.52;;;19.70;94.60;;;;;;4996304;28;20042;-73
2021/05/24 05:15:01;;;;;;;2.65;1.40;;;19.70;94.60;;;;;;4999997;28;20030;-74
2021/05/24 05:17:29;;;;;;;1.83;0.50;;;19.50;95.10;;;;;;5001936;28;20030;-75
2021/05/24 05:19:56;;;;;;;1.80;0.80;;;19.50;95.10;;;;;;4999069;28;20053;-74
2021/05/24 05:22:24;;;;;;;1.83;0.98;;;19.40;94.90;;;;;;5007894;28;20026;-75
2021/05/24 05:24:51;;;;;;;2.53;0.98;;;19.50;95.00;;;;;;5001174;28;20053;-75
2021/05/24 05:27:22;;;;;;;2.20;0.82;;;19.50;95.10;;;;;;5003414;28;20560;-75
2021/05/24 05:29:49;;;;;;;3.15;0.60;;;19.40;95.30;;;;;;4995282;28;20034;-73
2021/05/24 05:32:16;;;;;;;2.38;0.80;;;19.50;94.90;;;;;;4996262;28;20037;-73
2021/05/24 05:34:45;;;;;;;3.85;0.95;;;19.50;95.10;;;;;;4995297;28;20040;-75
2021/05/24 05:37:12;;;;;;;2.55;1.13;;;19.60;95.30;;;;;;4989414;28;20035;-77
2021/05/24 05:39:40;;;;;;;2.70;0.95;;;19.60;94.90;;;;;;4994003;28;20109;-74
2021/05/24 05:42:07;;;;;;;2.38;1.02;;;19.60;94.80;;;;;;4999323;28;20037;-75
2021/05/24 05:44:34;;;;;;;1.98;0.85;;;19.50;94.50;;;;;;4996014;28;20752;-75
2021/05/24 05:47:02;;;;;;;2.45;1.00;;;19.60;94.60;;;;;;4998623;28;20065;-74
2021/05/24 05:49:29;;;;;;;3.10;0.70;;;19.50;94.40;;;;;;4999258;28;20523;-72
2021/05/24 05:51:57;;;;;;;1.00;0.70;;;19.60;94.10;;;;;;4999796;28;20041;-75
2021/05/24 05:54:24;;;;;;;2.38;0.70;;;19.60;94.20;;;;;;5001477;28;20161;-74
2021/05/24 05:56:51;;;;;;;1.98;0.60;;;19.60;93.90;;;;;;4991569;28;20134;-74
2021/05/24 05:59:20;;;;;;;2.53;0.40;;;19.60;93.90;;;;;;5002681;28;20100;-75
2021/05/24 06:01:48;;;;;;;5.00;1.63;;;19.70;93.60;;;;;;4996731;28;20081;-75
2021/05/24 06:04:15;;;;;;;10.52;2.40;;;19.60;93.60;;;;;;5001904;28;20033;-75
2021/05/24 06:06:43;;;;;;;10.98;3.97;;;19.60;93.30;;;;;;4994040;28;20037;-74
2021/05/24 06:09:10;;;;;;;10.50;1.75;;;19.60;93.40;;;;;;4993809;28;20054;-75
2021/05/24 06:11:37;;;;;;;11.55;1.67;;;19.50;93.20;;;;;;4988707;28;20034;-74
2021/05/24 06:14:05;;;;;;;4.47;0.80;;;19.50;93.10;;;;;;4996504;28;20034;-74
2021/05/24 06:16:32;;;;;;;7.10;1.40;;;19.40;92.70;;;;;;5000900;28;20014;-73
2021/05/24 06:19:00;;;;;;;13.35;2.30;;;19.40;93.00;;;;;;4997869;28;20034;-75
2021/05/24 06:21:27;;;;;;;2.13;0.98;;;19.40;92.90;;;;;;4992146;28;20030;-74
2021/05/24 06:23:55;;;;;;;1.05;0.50;;;19.40;92.80;;;;;;5000519;28;20064;-75
2021/05/24 06:26:22;;;;;;;8.13;1.33;;;19.40;92.80;;;;;;4993720;28;20756;-75
2021/05/24 06:28:49;;;;;;;9.93;1.77;;;19.40;92.80;;;;;;4999102;28;20037;-75
2021/05/24 06:31:17;;;;;;;11.30;1.73;;;19.30;93.00;;;;;;4989148;28;20034;-73
2021/05/24 06:33:45;;;;;;;7.78;1.02;;;19.30;93.00;;;;;;4994208;28;20038;-74
2021/05/24 06:36:12;;;;;;;1.38;0.47;;;19.40;92.60;;;;;;4982825;28;20038;-74
2021/05/24 06:38:40;;;;;;;6.60;0.63;;;19.40;92.60;;;;;;5002020;28;20033;-74
2021/05/24 06:41:07;;;;;;;4.13;0.40;;;19.40;92.60;;;;;;4996408;28;20036;-74
2021/05/24 06:43:36;;;;;;;2.55;0.50;;;19.40;92.40;;;;;;5002906;28;20061;-78
2021/05/24 06:46:03;;;;;;;0.80;0.28;;;19.30;92.50;;;;;;4994670;28;20049;-78
2021/05/24 06:48:31;;;;;;;2.40;0.30;;;19.10;93.10;;;;;;5001974;28;20030;-79
2021/05/24 06:50:58;;;;;;;2.90;1.17;;;18.90;93.50;;;;;;4998038;28;20046;-79
2021/05/24 06:53:34;;;;;;;2.95;0.40;;;18.70;93.80;;;;;;5002280;28;20129;-78
2021/05/24 06:56:02;;;;;;;1.90;0.30;;;18.70;94.00;;;;;;4990223;28;20034;-80
2021/05/24 06:58:33;;;;;;;2.95;0.60;;;18.60;94.20;;;;;;4976089;28;20045;-79
2021/05/24 07:01:04;;;;;;;3.78;0.77;;;18.50;94.40;;;;;;4996178;28;20044;-78
2021/05/24 07:03:37;;;;;;;1.63;0.40;;;18.50;94.70;;;;;;4997013;28;20029;-74
2021/05/24 07:06:05;;;;;;;1.00;0.40;;;18.40;94.90;;;;;;4999495;28;20033;-76
2021/05/24 07:08:33;;;;;;;2.90;0.40;;;18.30;95.20;;;;;;4996215;28;20417;-77
2021/05/24 07:11:01;;;;;;;2.67;0.50;;;18.30;95.50;;;;;;4993089;28;20089;-76
2021/05/24 07:13:29;;;;;;;2.92;0.65;;;18.30;95.80;;;;;;4997359;28;20567;-75
2021/05/24 07:15:56;;;;;;;1.17;0.40;;;18.20;96.10;;;;;;4988844;28;20485;-75
2021/05/24 07:18:24;;;;;;;1.90;0.52;;;18.10;96.40;;;;;;4997641;28;20034;-75
2021/05/24 07:20:51;;;;;;;0.77;0.40;;;18.10;96.80;;;;;;4993350;28;20038;-76
2021/05/24 07:23:19;;;;;;;2.13;0.10;;;18.00;97.10;;;;;;4996240;28;20548;-75
2021/05/24 07:25:46;;;;;;;2.00;0.20;;;18.00;97.60;;;;;;4996890;28;20068;-76
2021/05/24 07:28:14;;;;;;;2.50;0.63;;;17.90;97.70;;;;;;5001084;28;20030;-76
2021/05/24 07:30:41;;;;;;;0.90;0.30;;;17.90;98.00;;;;;;5003602;28;20026;-77
2021/05/24 07:33:09;;;;;;;2.35;0.17;;;17.90;98.20;;;;;;4999742;28;20034;-75
2021/05/24 07:35:36;;;;;;;1.70;0.38;;;17.90;98.40;;;;;;4998390;28;20030;-76
2021/05/24 07:38:04;;;;;;;1.80;0.45;;;17.90;98.60;;;;;;5000453;28;20418;-75
2021/05/24 07:40:31;;;;;;;1.85;0.30;;;17.90;98.70;;;;;;5001945;28;20037;-75
2021/05/24 07:42:59;;;;;;;1.70;0.60;;;17.80;98.80;;;;;;5002448;28;20038;-75
2021/05/24 07:45:26;;;;;;;0.57;0.43;;;17.80;99.00;;;;;;4992126;28;20046;-76
2021/05/24 07:47:53;;;;;;;5.32;2.00;;;17.80;99.20;;;;;;4999404;28;20042;-76
2021/05/24 07:50:21;;;;;;;4.35;1.60;;;17.80;99.20;;;;;;4996253;28;20592;-77
2021/05/24 07:52:48;;;;;;;0.90;0.30;;;17.80;99.40;;;;;;4996913;28;20052;-76
2021/05/24 07:55:16;;;;;;;2.67;0.32;;;17.70;99.50;;;;;;4996235;28;20023;-77
2021/05/24 07:57:43;;;;;;;0.60;0.40;;;17.70;99.60;;;;;;4994600;28;20038;-76
2021/05/24 08:00:12;;;;;;;1.50;0.30;;;17.70;99.60;;;;;;4997203;28;20033;-77
2021/05/24 08:02:41;;;;;;;1.30;0.40;;;17.70;99.70;;;;;;4996126;28;20096;-77
2021/05/24 08:05:11;;;;;;;5.70;1.08;;;17.60;99.80;;;;;;4990995;28;20109;-75
2021/05/24 08:07:39;;;;;;;1.30;0.40;;;17.60;99.90;;;;;;5003071;28;20022;-77
2021/05/24 08:10:09;;;;;;;2.38;0.43;;;17.50;99.90;;;;;;4993713;28;20038;-75
2021/05/24 08:12:38;;;;;;;1.95;0.40;;;17.50;99.90;;;;;;4991058;28;20342;-74
2021/05/24 08:15:09;;;;;;;1.55;0.30;;;17.50;99.90;;;;;;4990689;28;20023;-75
2021/05/24 08:17:37;;;;;;;4.68;0.47;;;17.40;99.80;;;;;;4993705;28;20034;-75
2021/05/24 08:20:06;;;;;;;4.47;1.42;;;17.40;99.70;;;;;;4995725;28;20389;-75
2021/05/24 08:22:33;;;;;;;2.08;0.73;;;17.40;99.70;;;;;;4999334;28;20092;-76
2021/05/24 08:25:01;;;;;;;0.80;0.30;;;17.30;99.70;;;;;;4992368;28;20084;-77
2021/05/24 08:27:28;;;;;;;1.33;0.30;;;17.30;99.50;;;;;;4995556;28;20507;-75
2021/05/24 08:29:55;;;;;;;4.57;0.63;;;17.30;99.40;;;;;;5000331;28;20022;-76
2021/05/24 08:32:23;;;;;;;2.88;0.80;;;17.30;99.50;;;;;;5001566;28;20447;-77
2021/05/24 08:34:50;;;;;;;3.78;0.63;;;17.20;99.40;;;;;;4999174;28;20026;-77
2021/05/24 08:37:18;;;;;;;2.17;0.50;;;17.30;99.50;;;;;;5002878;28;20029;-75
2021/05/24 08:39:45;;;;;;;4.43;0.55;;;17.30;99.40;;;;;;4997356;28;20473;-77
2021/05/24 08:42:13;;;;;;;1.90;0.55;;;17.30;99.50;;;;;;5000854;28;20473;-77
2021/05/24 08:44:48;;;;;;;3.45;0.77;;;17.20;99.50;;;;;;4994710;28;20046;-75
2021/05/24 08:47:15;;;;;;;1.30;0.40;;;17.20;99.60;;;;;;4990740;28;20381;-77
2021/05/24 08:49:43;;;;;;;1.88;0.60;;;17.20;99.70;;;;;;4997526;28;20085;-77
2021/05/24 08:52:10;;;;;;;0.82;0.32;;;17.20;99.80;;;;;;4999787;28;20362;-77
2021/05/24 08:54:38;;;;;;;1.20;0.30;;;17.20;99.80;;;;;;4993009;28;20054;-75
2021/05/24 08:57:06;;;;;;;3.38;0.75;;;17.20;99.70;;;;;;5000500;28;20413;-77
2021/05/24 08:59:34;;;;;;;0.50;0.50;;;17.00;99.90;;;;;;4996393;28;20481;-76
2021/05/24 09:02:01;;;;;;;1.90;0.50;;;17.00;99.90;;;;;;4994159;28;20106;-77
2021/05/24 09:04:44;;;;;;;0.88;0.50;;;16.90;99.90;;;;;;4995891;28;20532;-77
2021/05/24 09:07:12;;;;;;;1.63;0.63;;;16.80;99.90;;;;;;5017085;28;20027;-76
2021/05/24 09:09:40;;;;;;;4.03;0.73;;;16.80;99.90;;;;;;5001745;28;20022;-76
2021/05/24 09:12:19;;;;;;;0.77;0.50;;;16.80;99.90;;;;;;4998773;28;20045;-76
2021/05/24 09:14:56;;;;;;;2.10;0.60;;;16.80;99.90;;;;;;4998663;28;21539;-77
2021/05/24 09:17:23;;;;;;;1.08;0.63;;;16.80;99.90;;;;;;5008353;28;20037;-78
2021/05/24 09:19:51;;;;;;;0.95;0.50;;;16.80;99.90;;;;;;5001992;28;20030;-78
2021/05/24 09:22:23;;;;;;;1.17;0.70;;;16.80;99.90;;;;;;5002457;28;20022;-74
2021/05/24 09:24:53;;;;;;;2.60;0.50;;;16.80;99.90;;;;;;5002984;28;20034;-77
2021/05/24 09:27:38;;;;;;;0.90;0.60;;;16.80;99.90;;;;;;5006709;28;20481;-76
2021/05/24 09:30:11;;;;;;;2.37;0.90;;;16.80;99.90;;;;;;4990926;28;20045;-76
2021/05/24 09:32:38;;;;;;;1.90;0.85;;;16.80;99.90;;;;;;4996066;28;20030;-77
2021/05/24 09:35:08;;;;;;;1.58;0.80;;;16.80;99.90;;;;;;4994851;28;20101;-77
2021/05/24 09:37:43;;;;;;;2.10;1.15;;;16.80;99.90;;;;;;5001448;28;20034;-77
2021/05/24 09:40:22;;;;;;;2.38;0.88;;;16.80;99.90;;;;;;4997084;28;20018;-77
2021/05/24 09:42:49;;;;;;;2.55;1.15;;;16.80;99.90;;;;;;4999493;28;20484;-77
2021/05/24 09:45:21;;;;;;;1.35;0.60;;;16.80;99.90;;;;;;5001570;28;20033;-78
2021/05/24 09:47:50;;;;;;;1.55;0.70;;;16.80;99.90;;;;;;4993876;28;20041;-76
2021/05/24 09:50:20;;;;;;;1.25;0.80;;;16.80;99.90;;;;;;4994190;28;20485;-77
2021/05/24 09:52:49;;;;;;;2.70;1.35;;;16.80;99.90;;;;;;4999579;28;20136;-74
2021/05/24 09:55:28;;;;;;;1.40;0.60;;;16.80;99.90;;;;;;4996575;28;20026;-77
2021/05/24 09:58:01;;;;;;;2.25;0.90;;;16.80;99.90;;;;;;4994612;28;20022;-77
2021/05/24 10:00:51;;;;;;;1.50;0.68;;;16.80;99.90;;;;;;4993781;28;20168;-76
2021/05/24 10:03:24;;;;;;;1.30;0.80;;;16.80;99.90;;;;;;4999047;28;20064;-78
2021/05/24 10:05:52;;;;;;;1.55;0.75;;;16.80;99.90;;;;;;5001818;28;20023;-77
2021/05/24 10:08:19;;;;;;;4.43;1.15;;;16.80;99.90;;;;;;4998662;28;20443;-76
2021/05/24 10:10:47;;;;;;;3.17;1.00;;;16.80;99.90;;;;;;4994664;28;20385;-77
2021/05/24 10:13:15;;;;;;;1.80;1.10;;;16.70;99.90;;;;;;5003498;28;20103;-77
2021/05/24 10:15:44;;;;;;;4.47;1.30;;;16.70;99.90;;;;;;4997711;28;20045;-77
2021/05/24 10:18:12;;;;;;;3.00;1.30;;;16.70;99.90;;;;;;4999247;28;20109;-77
2021/05/24 10:20:40;;;;;;;3.22;1.17;;;16.70;99.90;;;;;;5002422;28;20070;-77
2021/05/24 10:23:08;;;;;;;2.45;1.48;;;16.70;99.90;;;;;;5000469;28;20033;-76
2021/05/24 10:25:36;;;;;;;3.28;1.10;;;16.70;99.90;;;;;;5000152;28;20046;-76
2021/05/24 10:28:05;;;;;;;3.47;0.82;;;16.70;99.90;;;;;;4997055;28;20034;-77
2021/05/24 10:30:35;;;;;;;2.90;1.50;;;16.70;99.90;;;;;;4999694;28;20037;-76
2021/05/24 10:33:08;;;;;;;1.88;0.95;;;16.70;99.90;;;;;;5001055;28;20113;-77
2021/05/24 10:35:39;;;;;;;2.67;1.23;;;16.70;99.90;;;;;;5001351;28;20393;-77
2021/05/24 10:38:27;;;;;;;4.05;1.35;;;16.70;99.90;;;;;;4998669;28;20110;-77
2021/05/24 10:41:06;;;;;;;2.45;1.40;;;16.70;99.90;;;;;;4996749;28;20030;-76
2021/05/24 10:43:59;;;;;;;4.95;1.92;;;16.60;99.90;;;;;;4995910;28;20045;-76
2021/05/24 10:46:29;;;;;;;5.05;1.35;;;16.60;99.90;;;;;;4994406;28;20034;-79
2021/05/24 10:49:13;;;;;;;2.88;1.48;;;16.60;99.90;;;;;;4999520;28;20029;-77
2021/05/24 10:52:07;;;;;;;1.92;0.98;;;16.60;99.90;;;;;;4999887;28;20184;-77
2021/05/24 10:54:41;;;;;;;3.22;1.02;;;16.60;99.90;;;;;;4996101;28;20049;-78
2021/05/24 10:57:14;;;;;;;5.65;1.45;;;16.60;99.90;;;;;;5013897;28;20053;-77
2021/05/24 10:59:45;;;;;;;3.90;1.30;;;16.50;99.90;;;;;;4998995;28;20109;-76
2021/05/24 11:02:29;;;;;;;3.33;1.30;;;16.60;99.90;;;;;;4999795;28;20481;-78
2021/05/24 11:05:21;;;;;;;2.33;1.17;;;16.60;99.90;;;;;;4989690;28;20417;-77
2021/05/24 11:07:51;;;;;;;1.70;0.90;;;16.60;99.90;;;;;;4992555;28;20411;-76
2021/05/24 11:10:19;;;;;;;2.35;1.10;;;16.60;99.90;;;;;;5001121;28;20409;-78
2021/05/24 11:12:55;;;;;;;3.10;1.30;;;16.50;99.90;;;;;;4994893;28;20148;-76
2021/05/24 11:15:32;;;;;;;2.00;1.17;;;16.50;99.90;;;;;;4999151;28;20544;-77
2021/05/24 11:21:03;;;;;;;5.78;1.20;;;16.50;99.90;;;;;;4998383;28;20041;-78
2021/05/24 11:23:42;;;;;;;5.18;1.10;;;16.50;99.90;;;;;;4998996;28;20527;-76
2021/05/24 11:26:19;;;;;;;2.47;1.52;;;16.50;99.90;;;;;;4999746;28;20116;-77
2021/05/24 11:29:18;;;;;;;2.88;1.60;;;16.50;99.90;;;;;;4997181;28;20053;-77
2021/05/24 11:31:56;;;;;;;4.40;1.67;;;16.40;99.90;;;;;;4990926;28;20731;-76
2021/05/24 11:34:35;;;;;;;3.90;1.40;;;16.40;99.90;;;;;;4995569;28;20034;-75
2021/05/24 11:37:07;;;;;;;6.97;1.80;;;16.40;99.90;;;;;;4998915;28;20026;-78
2021/05/24 11:39:40;;;;;;;5.25;2.03;;;16.40;99.90;;;;;;5001847;28;20088;-76
2021/05/24 11:42:19;;;;;;;4.45;1.90;;;16.40;99.90;;;;;;4999356;28;20026;-79
2021/05/24 11:44:48;;;;;;;2.83;1.58;;;16.40;99.90;;;;;;5001082;28;20125;-78
2021/05/24 11:47:19;;;;;;;3.38;1.15;;;16.40;99.90;;;;;;4998553;28;20393;-77
2021/05/24 11:49:48;;;;;;;1.95;0.77;;;16.30;99.90;;;;;;4995191;28;21553;-77
2021/05/24 11:52:21;;;;;;;2.45;0.82;;;16.30;99.90;;;;;;4994661;28;20070;-76
2021/05/24 11:54:50;;;;;;;1.17;0.70;;;16.20;99.90;;;;;;4999568;28;20123;-78
2021/05/24 11:57:22;;;;;;;1.63;0.82;;;16.20;99.90;;;;;;5005147;28;20101;-78
2021/05/24 11:59:51;;;;;;;1.85;0.73;;;16.20;99.90;;;;;;4994322;28;20037;-78
2021/05/24 12:02:22;;;;;;;1.20;0.77;;;16.20;99.90;;;;;;5009693;28;20088;-78
2021/05/24 12:04:51;;;;;;;3.45;1.08;;;16.10;99.90;;;;;;4997561;28;20026;-77
2021/05/24 12:07:22;;;;;;;2.63;1.45;;;16.10;99.90;;;;;;4998134;28;20046;-76
2021/05/24 12:09:52;;;;;;;6.18;2.92;;;16.20;99.90;;;;;;4997953;28;20026;-76
2021/05/24 12:12:23;;;;;;;11.25;5.32;;;16.10;99.90;;;;;;4994160;28;20489;-77
2021/05/24 12:14:58;;;;;;;10.23;6.65;;;16.10;99.90;;;;;;5003619;28;20034;-76
2021/05/24 12:17:32;;;;;;;8.63;5.35;;;16.10;99.90;;;;;;5004150;28;20084;-77
2021/05/24 12:20:03;;;;;;;8.77;4.15;;;16.10;99.90;;;;;;5000107;28;20035;-76
2021/05/24 12:22:39;;;;;;;8.55;4.60;;;16.10;99.90;;;;;;4997561;28;20053;-75
2021/05/24 12:25:08;;;;;;;5.40;3.50;;;16.20;99.90;;;;;;4992231;28;20030;-76
2021/05/24 12:27:35;;;;;;;7.82;4.10;;;16.10;99.90;;;;;;5000174;28;20562;-75
2021/05/24 12:30:18;;;;;;;3.13;2.35;;;16.20;99.90;;;;;;4994069;28;20026;-76
2021/05/24 12:32:54;;;;;;;5.63;2.65;;;16.10;99.90;;;;;;4997438;28;20420;-76
2021/05/24 12:35:25;;;;;;;;;;;16.10;99.90;;;;;;4997104;28;20022;-76
2021/05/24 12:38:08;;;;;;;3.38;1.10;;;16.20;99.90;;;;;;4994105;28;20415;-76
2021/05/24 12:40:35;;;;;;;5.45;1.40;;;16.10;99.90;;;;;;4996188;28;20104;-75
2021/05/24 12:43:04;;;;;;;3.67;1.10;;;16.10;99.90;;;;;;5003212;28;20396;-76
2021/05/24 12:45:32;;;;;;;3.17;1.10;;;16.10;99.90;;;;;;5002517;28;20076;-76
2021/05/24 12:48:11;;;;;;;3.85;1.05;;;16.10;99.90;;;;;;5001203;28;20084;-76
2021/05/24 12:50:40;;;;;;;3.10;1.42;;;16.10;99.90;;;;;;4995823;28;20057;-76
2021/05/24 12:53:13;;;;;;;3.17;1.67;;;16.10;99.90;;;;;;5004464;28;20034;-76
2021/05/24 12:55:41;;;;;;;1.75;0.65;;;16.00;99.90;;;;;;5001967;28;20031;-75
2021/05/24 12:58:16;;;;;;;2.28;1.23;;;16.00;99.90;;;;;;5006044;28;20049;-77
2021/05/24 13:00:46;;;;;;;2.67;0.85;;;16.00;99.90;;;;;;4994117;28;20100;-76
2021/05/24 13:03:16;;;;;;;3.15;1.15;;;16.00;99.90;;;;;;5002842;28;20507;-77